createdAt,value
2023-01-06T00:03:17.634Z,53.1
2023-01-06T00:08:36.193Z,53.1
2023-01-06T00:13:54.920Z,52.9
2023-01-06T00:19:13.828Z,53.8
2023-01-06T00:24:32.294Z,53.6
2023-01-06T00:29:50.790Z,54
2023-01-06T00:34:53.770Z,54.6
2023-01-06T00:40:12.142Z,54.8
2023-01-06T00:45:30.625Z,54.1
2023-01-06T00:50:49.535Z,54.4
2023-01-06T00:56:07.818Z,54.9
2023-01-06T01:01:26.966Z,54.9
2023-01-06T01:06:45.748Z,54.6
2023-01-06T01:12:04.852Z,55.1
2023-01-06T01:17:23.053Z,54.4
2023-01-06T01:22:41.965Z,54
2023-01-06T01:28:00.746Z,55.1
2023-01-06T01:33:19.367Z,55.1
2023-01-06T01:38:38.242Z,54.4
2023-01-06T01:43:57.384Z,54.4
2023-01-06T01:49:16.189Z,54.6
2023-01-06T01:54:34.777Z,54.7
2023-01-06T01:59:53.017Z,55
2023-01-06T02:05:11.220Z,54
2023-01-06T02:10:30.113Z,54.7
2023-01-06T02:15:48.802Z,54.9
2023-01-06T02:21:07.711Z,53.9
2023-01-06T02:26:26.050Z,54.2
2023-01-06T02:31:44.429Z,54.1
2023-01-06T02:37:02.920Z,54
2023-01-06T02:42:05.886Z,54.7
2023-01-06T02:47:24.360Z,54.1
2023-01-06T02:52:43.105Z,54
2023-01-06T02:58:01.449Z,54.3
2023-01-06T03:03:20.043Z,54.8
2023-01-06T03:08:38.505Z,54
2023-01-06T03:13:56.838Z,55.3
2023-01-06T03:19:15.763Z,55.3
2023-01-06T03:24:34.499Z,55.2
2023-01-06T03:29:53.115Z,54.7
2023-01-06T03:35:11.551Z,54.5
2023-01-06T03:40:29.765Z,54.2
2023-01-06T03:45:48.655Z,54.2
2023-01-06T03:51:07.392Z,54.5
2023-01-06T03:56:25.331Z,54.9
2023-01-06T04:01:44.075Z,54.7
2023-01-06T04:07:02.598Z,55
2023-01-06T04:12:20.778Z,55
2023-01-06T04:17:39.131Z,54.3
2023-01-06T04:22:57.533Z,55
2023-01-06T04:28:15.735Z,54.1
2023-01-06T04:33:33.819Z,54.5
2023-01-06T04:38:52.059Z,55.2
2023-01-06T04:44:10.255Z,54.8
2023-01-06T04:49:28.858Z,54.2
2023-01-06T04:54:47.331Z,54.1
2023-01-06T05:00:06.128Z,54.1
2023-01-06T05:05:24.726Z,54.1
2023-01-06T05:10:43.156Z,53.7
2023-01-06T05:15:46.439Z,53.5
2023-01-06T05:21:05.049Z,54
2023-01-06T05:26:23.799Z,54.2
2023-01-06T05:31:42.689Z,54
2023-01-06T05:37:00.736Z,53.6
2023-01-06T05:42:19.203Z,53.5
2023-01-06T05:47:37.699Z,54.1
2023-01-06T05:52:56.321Z,53.1
2023-01-06T05:58:14.814Z,52.9
2023-01-06T06:03:33.675Z,53.6
2023-01-06T06:08:52.039Z,52.7
2023-01-06T06:14:10.324Z,53.8
2023-01-06T06:19:28.242Z,52.9
2023-01-06T06:24:46.972Z,53
2023-01-06T06:30:05.380Z,53.4
2023-01-06T06:35:24.153Z,53.4
2023-01-06T06:40:42.474Z,53
2023-01-06T06:46:01.144Z,53
2023-01-06T06:51:19.864Z,53.2
2023-01-06T06:56:38.499Z,52.5
2023-01-06T07:01:58.235Z,52.9
2023-01-06T07:07:16.768Z,53.1
2023-01-06T07:12:34.842Z,52.3
2023-01-06T07:17:53.729Z,52.5
2023-01-06T07:23:12.487Z,52
2023-01-06T07:28:31.134Z,50.6
2023-01-06T07:33:49.664Z,51
2023-01-06T07:38:52.565Z,50.6
2023-01-06T07:44:11.493Z,50.4
2023-01-06T07:49:30.440Z,51.1
2023-01-06T07:54:48.957Z,51
2023-01-06T08:00:07.671Z,50
2023-01-06T08:05:26.404Z,50
2023-01-06T08:10:44.907Z,50.4
2023-01-06T08:16:03.764Z,49.4
2023-01-06T08:21:22.419Z,49.9
2023-01-06T08:26:40.894Z,50
2023-01-06T08:32:11.880Z,49.1
2023-01-06T08:37:30.628Z,48.8
2023-01-06T08:42:49.128Z,49.5
2023-01-06T08:48:07.474Z,48.5
2023-01-06T08:53:26.482Z,48.5
2023-01-06T08:58:44.669Z,49
2023-01-06T09:04:03.305Z,48.5
2023-01-06T09:09:22.319Z,48.1
2023-01-06T09:14:40.831Z,48.9
2023-01-06T09:19:59.430Z,47.9
2023-01-06T09:25:17.669Z,47.8
2023-01-06T09:30:36.421Z,48.6
2023-01-06T09:35:54.769Z,47.8
2023-01-06T09:41:13.245Z,47.9
2023-01-06T09:46:32.177Z,47.7
2023-01-06T09:51:50.252Z,47.3
2023-01-06T09:57:08.877Z,47.6
2023-01-06T10:02:27.659Z,47.2
2023-01-06T10:07:45.949Z,47.5
2023-01-06T10:13:04.756Z,47.8
2023-01-06T10:18:23.249Z,47
2023-01-06T10:23:41.869Z,47.9
2023-01-06T10:29:00.850Z,47.2
2023-01-06T10:34:19.117Z,47.4
2023-01-06T10:39:37.978Z,48
2023-01-06T10:44:56.677Z,47.1
2023-01-06T10:50:14.886Z,47.1
2023-01-06T10:55:33.799Z,47.8
2023-01-06T11:00:52.414Z,47.5
2023-01-06T11:06:10.900Z,46.7
2023-01-06T11:11:29.955Z,46.9
2023-01-06T11:16:48.487Z,42.4
2023-01-06T11:22:06.692Z,36.7
2023-01-06T11:27:25.037Z,38.7
2023-01-06T11:32:43.814Z,39.7
2023-01-06T11:38:02.303Z,40.2
2023-01-06T11:43:21.178Z,42.2
2023-01-06T11:48:39.910Z,43.4
2023-01-06T11:53:58.655Z,43.1
2023-01-06T11:59:17.015Z,44.8
2023-01-06T12:04:35.422Z,44.5
2023-01-06T12:09:54.174Z,44.7
2023-01-06T12:15:13.078Z,45
2023-01-06T12:20:32.109Z,45.2
2023-01-06T12:25:50.601Z,45.1
2023-01-06T12:31:09.582Z,45.8
2023-01-06T12:36:28.167Z,44.8
2023-01-06T12:41:46.378Z,45.1
2023-01-06T12:47:04.881Z,45
2023-01-06T12:52:23.335Z,44.9
2023-01-06T12:57:41.822Z,45.6
2023-01-06T13:03:00.406Z,45.3
2023-01-06T13:08:19.190Z,45.1
2023-01-06T13:13:37.666Z,45.1
2023-01-06T13:18:56.561Z,45.4
2023-01-06T13:24:15.424Z,45.6
2023-01-06T13:29:33.626Z,44.7
2023-01-06T13:34:51.593Z,45.3
2023-01-06T13:40:10.300Z,44.7
2023-01-06T13:45:28.629Z,45.6
2023-01-06T13:50:47.471Z,45.9
2023-01-06T13:56:06.254Z,45.7
2023-01-06T14:01:25.007Z,45.2
2023-01-06T14:06:43.457Z,45.6
2023-01-06T14:12:02.285Z,45.7
2023-01-06T14:17:20.209Z,45.6
2023-01-06T14:22:38.858Z,46.2
2023-01-06T14:27:57.724Z,45.9
2023-01-06T14:33:16.190Z,45.7
2023-01-06T14:38:35.142Z,45.8
2023-01-06T14:43:53.936Z,46.1
2023-01-06T14:49:12.667Z,46.2
2023-01-06T14:54:31.190Z,46.2
2023-01-06T14:59:49.855Z,46.3
2023-01-06T15:05:08.659Z,46.3
2023-01-06T15:10:27.260Z,47
2023-01-06T15:15:45.920Z,46.6
2023-01-06T15:21:04.132Z,47
2023-01-06T15:26:22.623Z,48.2
2023-01-06T15:31:41.323Z,47.1
2023-01-06T15:36:59.816Z,47
2023-01-06T15:42:18.144Z,47.4
2023-01-06T15:47:36.361Z,47.5
2023-01-06T15:52:54.856Z,47.6
2023-01-06T15:58:13.169Z,47.5
2023-01-06T16:03:31.927Z,47.4
2023-01-06T16:08:50.139Z,47.4
2023-01-06T16:14:09.021Z,48.4
2023-01-06T16:19:27.902Z,48.2
2023-01-06T16:24:46.700Z,48.2
2023-01-06T16:30:05.253Z,47.7
2023-01-06T16:35:23.803Z,47.6
2023-01-06T16:40:42.003Z,47.6
2023-01-06T16:46:00.630Z,48.3
2023-01-06T16:51:19.551Z,47.8
2023-01-06T16:56:38.029Z,48.4
2023-01-06T17:01:57.102Z,47.6
2023-01-06T17:07:15.880Z,47.7
2023-01-06T17:12:35.888Z,47.9
2023-01-06T17:17:54.221Z,48.6
2023-01-06T17:23:12.828Z,47.9
2023-01-06T17:28:31.335Z,48.3
2023-01-06T17:33:50.222Z,48
2023-01-06T17:39:08.451Z,48.5
2023-01-06T17:44:26.925Z,48.1
2023-01-06T17:49:45.560Z,48.7
2023-01-06T17:55:04.062Z,48.6
2023-01-06T18:00:22.518Z,48.8
2023-01-06T18:05:40.877Z,48.2
2023-01-06T18:10:59.533Z,48.1
2023-01-06T18:16:02.650Z,48.5
2023-01-06T18:21:21.558Z,48.4
2023-01-06T18:26:40.589Z,48.3
2023-01-06T18:31:59.307Z,48.2
2023-01-06T18:37:18.165Z,48.8
2023-01-06T18:42:36.800Z,49
2023-01-06T18:47:55.306Z,48.3
2023-01-06T18:53:13.555Z,49.1
2023-01-06T18:58:32.574Z,48.4
2023-01-06T19:03:50.773Z,49.2
2023-01-06T19:09:09.116Z,49
2023-01-06T19:14:28.069Z,48.6
2023-01-06T19:19:46.557Z,48.4
2023-01-06T19:25:05.137Z,48.9
2023-01-06T19:30:23.648Z,48.2
2023-01-06T19:35:41.566Z,48.7
2023-01-06T19:41:00.224Z,48.5
2023-01-06T19:46:19.031Z,48.7
2023-01-06T19:51:37.267Z,48.6
2023-01-06T19:56:55.511Z,48.6
2023-01-06T20:02:14.689Z,48.9
2023-01-06T20:07:33.176Z,49.2
2023-01-06T20:12:51.798Z,48.5
2023-01-06T20:18:10.027Z,48.7
2023-01-06T20:23:28.559Z,48.7
2023-01-06T20:28:47.150Z,48.8
2023-01-06T20:34:05.451Z,49.4
2023-01-06T20:39:23.637Z,48.9
2023-01-06T20:44:41.956Z,49.6
2023-01-06T20:50:00.382Z,49.1
2023-01-06T20:55:18.583Z,49.8
2023-01-06T21:00:37.154Z,49.8
2023-01-06T21:05:55.923Z,49.2
2023-01-06T21:11:13.873Z,49
2023-01-06T21:16:32.622Z,49.2
2023-01-06T21:21:51.117Z,49.9
2023-01-06T21:27:09.038Z,49.3
2023-01-06T21:32:27.367Z,50.1
2023-01-06T21:37:46.073Z,49.9
2023-01-06T21:43:04.625Z,50.3
2023-01-06T21:48:23.516Z,50.2
2023-01-06T21:53:42.272Z,50.6
2023-01-06T21:59:00.485Z,49.9
2023-01-06T22:04:18.846Z,50.6
2023-01-06T22:09:37.304Z,50
2023-01-06T22:14:55.496Z,50.5
2023-01-06T22:20:14.402Z,49.9
2023-01-06T22:25:33.215Z,49.9
2023-01-06T22:30:54.407Z,49.7
2023-01-06T22:36:13.298Z,51.1
2023-01-06T22:41:32.136Z,50.6
2023-01-06T22:46:50.333Z,50.9
2023-01-06T22:52:08.972Z,50.2
2023-01-06T22:57:27.550Z,50.8
2023-01-06T23:02:46.963Z,50.1
2023-01-06T23:08:05.624Z,50.9
2023-01-06T23:13:24.260Z,50.6
2023-01-06T23:18:42.719Z,50.4
2023-01-06T23:24:01.031Z,51.1
2023-01-06T23:29:19.344Z,50.7
2023-01-06T23:34:37.833Z,51.1
2023-01-06T23:39:56.427Z,50.7
2023-01-06T23:45:14.748Z,51.4
2023-01-06T23:50:32.965Z,51.2
2023-01-06T23:55:51.844Z,50.6
